»·PEaware :: N1187 KSBA-KSNA

N1187 :: KSBA-KSNA

FLIGHT INFORMATION

Flight Status: Arrived
Operator: Privately registered:
United States
More flights under this callsign
Pilot: Anonymous 12254 (12254)
Aircraft: PILATUS PC-12 EAGLE
(PC12)
More flights by this aircraft type
Origin: KSBA Santa Barbara Mun
United States
Destination: KSNA John Wayne-Orange Co
United States
More flights between these airports :: More routes between these airports
Route: KWANG VTU V208 SXC SLI
File this flight plan on PilotEdge
Remarks: TEC route SBAP8
Altitude:
(Current/Filed)
9,000ft
Speed:
(Current/Filed)
200kts
Departed: 17-Apr-19 08:14 PM
Arrived: 17-Apr-19 08:59 PM
Distance/Time
Traveled:
108nm/0:45
Distance/Time
To Go:
Arrived

Flight Plot

Page will automatically refresh every two minutes.


Map Options




Map Legend


Flown Route
Filed Route
Departure Airport
Arrival Airport
Navaid (VOR, NDB)
Fix

Horizontal Profiles

Position Reports

Time Latitude Longitude Heading Altitude Ground
Speed
17-Apr-19 19:54 34.422651 -119.835588 340 10ft 0kts
17-Apr-19 19:55 34.422651 -119.835588 340 10ft 0kts
17-Apr-19 19:56 34.422651 -119.835588 340 10ft 0kts
17-Apr-19 19:57 34.422651 -119.835588 340 10ft 0kts
17-Apr-19 19:58 34.422651 -119.835588 340 10ft 0kts
17-Apr-19 19:59 34.422651 -119.835588 340 10ft 0kts
17-Apr-19 20:00 34.422651 -119.835588 340 10ft 0kts
17-Apr-19 20:01 34.422651 -119.835588 340 10ft 0kts
17-Apr-19 20:02 34.422651 -119.835588 340 10ft 0kts
17-Apr-19 20:03 34.422651 -119.835588 340 10ft 0kts
17-Apr-19 20:05 34.422651 -119.835588 340 10ft 0kts
17-Apr-19 20:06 34.422651 -119.835588 340 10ft 0kts
17-Apr-19 20:07 34.422651 -119.835588 340 10ft 0kts
17-Apr-19 20:08 34.422651 -119.835588 340 10ft 0kts
17-Apr-19 20:09 34.422651 -119.835588 340 10ft 0kts
17-Apr-19 20:10 34.422651 -119.835588 340 10ft 0kts
17-Apr-19 20:11 34.422738 -119.835583 29 10ft 2kts
17-Apr-19 20:12 34.425890 -119.835939 338 10ft 5kts
17-Apr-19 20:13 34.426996 -119.835072 344 10ft 0kts
17-Apr-19 20:14 34.427881 -119.837477 268 12ft 59kts
17-Apr-19 20:15 34.426163 -119.875486 261 940ft 125kts
17-Apr-19 20:16 34.420418 -119.924215 261 2246ft 172kts
17-Apr-19 20:17 34.396485 -119.969085 164 3603ft 193kts
17-Apr-19 20:18 34.346991 -119.939397 151 4926ft 202kts
17-Apr-19 20:19 34.296336 -119.907593 151 6231ft 208kts
17-Apr-19 20:20 34.255436 -119.861560 121 7555ft 209kts
17-Apr-19 20:21 34.221413 -119.803740 124 8859ft 212kts
17-Apr-19 20:22 34.183501 -119.740587 124 9002ft 246kts
17-Apr-19 20:23 34.142092 -119.671783 124 9007ft 256kts
17-Apr-19 20:24 34.100542 -119.602858 124 9011ft 250kts
17-Apr-19 20:25 34.059451 -119.534801 124 9017ft 250kts
17-Apr-19 20:26 34.018375 -119.466879 124 9020ft 247kts
17-Apr-19 20:27 33.978174 -119.400515 124 8991ft 245kts
17-Apr-19 20:28 33.937970 -119.334299 124 8994ft 244kts
17-Apr-19 20:29 33.909427 -119.287375 124 8999ft 243kts
17-Apr-19 20:29 33.876267 -119.232902 124 8998ft 238kts
17-Apr-19 20:30 33.873620 -119.228549 124 8998ft 238kts
17-Apr-19 20:32 33.828193 -119.154116 124 8999ft 235kts
17-Apr-19 20:32 33.795830 -119.101169 124 8999ft 234kts
17-Apr-19 20:33 33.757185 -119.038047 124 8999ft 234kts
17-Apr-19 20:34 33.718197 -118.974446 124 9000ft 236kts
17-Apr-19 20:36 33.672222 -118.899642 125 9004ft 238kts
17-Apr-19 20:36 33.639130 -118.845893 125 9009ft 238kts
17-Apr-19 20:37 33.599508 -118.781648 125 9017ft 239kts
17-Apr-19 20:38 33.559607 -118.717086 124 9018ft 239kts
17-Apr-19 20:39 33.566080 -118.642624 71 9018ft 232kts
17-Apr-19 20:40 33.583953 -118.568085 71 9018ft 231kts
17-Apr-19 20:41 33.601845 -118.493561 71 9018ft 231kts
17-Apr-19 20:42 33.619731 -118.419155 71 9016ft 231kts
17-Apr-19 20:43 33.637294 -118.346310 71 9014ft 231kts
17-Apr-19 20:44 33.655314 -118.271956 71 9009ft 231kts
17-Apr-19 20:45 33.673470 -118.197685 71 9004ft 231kts
17-Apr-19 20:46 33.691715 -118.123610 71 9001ft 231kts
17-Apr-19 20:47 33.715340 -118.052716 47 9005ft 228kts
17-Apr-19 20:48 33.758622 -117.994207 46 7823ft 241kts
17-Apr-19 20:49 33.803277 -117.934247 46 6317ft 236kts
17-Apr-19 20:50 33.840540 -117.884130 46 4863ft 177kts
17-Apr-19 20:51 33.873069 -117.840700 46 3353ft 173kts
17-Apr-19 20:52 33.889653 -117.794952 110 2990ft 157kts
17-Apr-19 20:53 33.860026 -117.765102 180 2992ft 157kts
17-Apr-19 20:54 33.816629 -117.769979 225 2887ft 163kts
17-Apr-19 20:55 33.779044 -117.803212 209 2209ft 172kts
17-Apr-19 20:56 33.737302 -117.829756 209 1316ft 157kts
17-Apr-19 20:57 33.701153 -117.852696 209 526ft 143kts
17-Apr-19 20:58 33.674189 -117.869907 232 60ft 18kts
17-Apr-19 20:59 33.673993 -117.871774 287 60ft 11kts
17-Apr-19 21:00 33.674089 -117.872175 209 60ft 0kts
17-Apr-19 21:01 33.674089 -117.872175 209 60ft 0kts
17-Apr-19 21:02 33.674089 -117.872175 209 60ft 0kts
17-Apr-19 21:03 33.674089 -117.872175 209 60ft 0kts
17-Apr-19 21:04 33.674089 -117.872175 209 60ft 0kts
17-Apr-19 21:05 33.674089 -117.872175 209 60ft 0kts
17-Apr-19 21:06 33.674089 -117.872175 209 60ft 0kts
17-Apr-19 21:07 33.674089 -117.872175 209 60ft 0kts
17-Apr-19 21:08 33.674089 -117.872175 209 60ft 0kts
17-Apr-19 21:09 33.674089 -117.872175 209 60ft 0kts
17-Apr-19 21:10 33.674089 -117.872175 209 60ft 0kts
17-Apr-19 21:11 33.674089 -117.872175 209 60ft 0kts
17-Apr-19 21:12 33.674089 -117.872175 209 60ft 0kts

Navigation Log

Ident Type
Flight plan parsing failed, navigation log unavailable